createdAt,value
2018-06-05T00:02:03.874Z,100676.27
2018-06-05T00:04:33.588Z,100682.03
2018-06-05T00:07:03.226Z,100679.37
2018-06-05T00:09:32.872Z,100678.91
2018-06-05T00:12:02.613Z,100678.55
2018-06-05T00:14:32.278Z,100682.48
2018-06-05T00:17:01.912Z,100679.81
2018-06-05T00:19:31.324Z,100672.86
2018-06-05T00:22:00.985Z,100679.95
2018-06-05T00:24:30.737Z,100681.78
2018-06-05T00:27:00.366Z,100677.93
2018-06-05T00:29:30.196Z,100675.80
2018-06-05T00:31:59.813Z,100674.51
2018-06-05T00:34:29.489Z,100674.95
2018-06-05T00:36:58.898Z,100675.00
2018-06-05T00:39:28.573Z,100673.30
2018-06-05T00:41:58.219Z,100675.98
2018-06-05T00:44:27.920Z,100679.89
2018-06-05T00:46:57.656Z,100682.98
2018-06-05T00:49:27.040Z,100691.73
2018-06-05T00:52:08.455Z,100694.37
2018-06-05T00:54:38.138Z,100689.21
2018-06-05T00:57:07.906Z,100688.79
2018-06-05T00:59:37.511Z,100690.12
2018-06-05T01:02:07.302Z,100685.70
2018-06-05T01:04:36.980Z,100690.11
2018-06-05T01:07:06.869Z,100689.27
2018-06-05T01:09:36.558Z,100691.44
2018-06-05T01:12:06.531Z,100685.66
2018-06-05T01:14:36.168Z,100684.81
2018-06-05T01:17:05.851Z,100679.61
2018-06-05T01:21:56.569Z,100688.41
2018-06-05T01:24:26.292Z,100688.37
2018-06-05T01:26:55.934Z,100700.62
2018-06-05T01:29:25.607Z,100703.72
2018-06-05T01:31:55.316Z,100698.97
2018-06-05T01:34:24.975Z,100702.47
2018-06-05T01:36:54.732Z,100710.33
2018-06-05T01:39:24.389Z,100710.32
2018-06-05T01:41:54.008Z,100712.09
2018-06-05T01:44:23.369Z,100711.54
2018-06-05T01:46:52.973Z,100708.37
2018-06-05T01:49:22.681Z,100710.08
2018-06-05T01:51:52.318Z,100712.68
2018-06-05T01:54:22.027Z,100713.48
2018-06-05T01:56:51.762Z,100712.17
2018-06-05T01:59:21.443Z,100717.34
2018-06-05T02:01:51.155Z,100718.62
2018-06-05T02:04:20.781Z,100722.06
2018-06-05T02:06:50.512Z,100726.39
2018-06-05T02:09:20.177Z,100720.28
2018-06-05T02:11:49.841Z,100721.92
2018-06-05T02:14:19.466Z,100721.88
2018-06-05T02:16:49.101Z,100716.73
2018-06-05T02:19:18.812Z,100718.08
2018-06-05T02:21:48.473Z,100723.31
2018-06-05T02:24:18.115Z,100725.45
2018-06-05T02:26:47.775Z,100731.87
2018-06-05T02:29:17.399Z,100731.48
2018-06-05T02:31:46.994Z,100731.84
2018-06-05T02:34:16.723Z,100723.83
2018-06-05T02:36:46.370Z,100725.02
2018-06-05T02:39:16.033Z,100716.69
2018-06-05T02:41:45.652Z,100718.02
2018-06-05T02:44:15.328Z,100716.70
2018-06-05T02:46:45.003Z,100716.21
2018-06-05T02:49:14.632Z,100718.44
2018-06-05T02:51:44.290Z,100711.12
2018-06-05T02:54:13.950Z,100710.40
2018-06-05T02:56:43.711Z,100706.54
2018-06-05T02:59:13.349Z,100710.52
2018-06-05T03:01:43.064Z,100707.05
2018-06-05T03:04:12.852Z,100716.60
2018-06-05T03:06:42.532Z,100718.30
2018-06-05T03:09:11.888Z,100712.97
2018-06-05T03:11:41.596Z,100713.42
2018-06-05T03:14:11.214Z,100714.58
2018-06-05T03:16:40.835Z,100718.34
2018-06-05T03:19:10.533Z,100717.55
2018-06-05T03:21:40.159Z,100725.91
2018-06-05T03:24:09.840Z,100725.05
2018-06-05T03:26:39.468Z,100725.84
2018-06-05T03:29:09.093Z,100724.97
2018-06-05T03:31:38.720Z,100732.91
2018-06-05T03:34:08.429Z,100733.36
2018-06-05T03:36:38.165Z,100736.34
2018-06-05T03:39:07.877Z,100730.22
2018-06-05T03:41:37.241Z,100732.00
2018-06-05T03:44:06.974Z,100736.22
2018-06-05T03:46:36.944Z,100741.94
2018-06-05T03:49:07.012Z,100733.59
2018-06-05T03:51:36.699Z,100737.50
2018-06-05T03:54:06.575Z,100733.43
2018-06-05T03:56:35.827Z,100733.45
2018-06-05T03:59:05.537Z,100736.92
2018-06-05T04:01:35.340Z,100739.13
2018-06-05T04:04:05.109Z,100743.45
2018-06-05T04:06:34.764Z,100738.37
2018-06-05T04:09:05.578Z,100742.76
2018-06-05T04:11:35.364Z,100737.06
2018-06-05T04:14:05.040Z,100742.78
2018-06-05T04:16:34.667Z,100744.19
2018-06-05T04:19:04.290Z,100744.16
2018-06-05T04:21:33.952Z,100745.41
2018-06-05T04:24:03.770Z,100745.38
2018-06-05T04:26:33.388Z,100741.73
2018-06-05T04:29:03.024Z,100740.52
2018-06-05T04:31:32.678Z,100734.91
2018-06-05T04:34:01.982Z,100739.30
2018-06-05T04:36:31.705Z,100738.44
2018-06-05T04:39:01.294Z,100747.94
2018-06-05T04:41:30.973Z,100753.06
2018-06-05T04:44:00.597Z,100755.56
2018-06-05T04:46:30.257Z,100757.94
2018-06-05T04:48:59.958Z,100760.26
2018-06-05T04:51:29.598Z,100758.01
2018-06-05T04:53:59.290Z,100766.75
2018-06-05T04:56:28.917Z,100762.25
2018-06-05T04:58:58.688Z,100760.53
2018-06-05T05:01:28.371Z,100763.16
2018-06-05T05:03:58.006Z,100759.70
2018-06-05T05:06:27.629Z,100767.06
2018-06-05T05:08:57.398Z,100770.81
2018-06-05T05:11:27.224Z,100767.06
2018-06-05T05:13:56.901Z,100772.58
2018-06-05T05:16:26.650Z,100773.59
2018-06-05T05:18:56.313Z,100769.88
2018-06-05T05:21:25.998Z,100769.31
2018-06-05T05:23:55.689Z,100766.13
2018-06-05T05:26:25.378Z,100756.93
2018-06-05T05:28:55.025Z,100756.66
2018-06-05T05:31:24.802Z,100757.37
2018-06-05T05:33:54.441Z,100758.05
2018-06-05T05:36:24.222Z,100756.91
2018-06-05T05:38:53.966Z,100758.84
2018-06-05T05:41:23.626Z,100759.54
2018-06-05T05:43:53.281Z,100760.66
2018-06-05T05:46:22.950Z,100763.44
2018-06-05T05:48:52.621Z,100765.05
2018-06-05T05:51:22.351Z,100766.77
2018-06-05T05:53:52.249Z,100770.05
2018-06-05T05:56:21.950Z,100768.13
2018-06-05T05:58:51.584Z,100771.91
2018-06-05T06:01:21.333Z,100766.44
2018-06-05T06:03:50.969Z,100769.89
2018-06-05T06:06:20.663Z,100767.51
2018-06-05T06:08:50.301Z,100766.75
2018-06-05T06:11:19.996Z,100772.28
2018-06-05T06:13:49.720Z,100769.14
2018-06-05T06:16:19.373Z,100775.62
2018-06-05T06:18:49.109Z,100778.90
2018-06-05T06:21:18.777Z,100777.12
2018-06-05T06:23:48.425Z,100780.66
2018-06-05T06:26:18.390Z,100787.50
2018-06-05T06:28:48.170Z,100783.39
2018-06-05T06:31:17.802Z,100785.53
2018-06-05T06:33:47.196Z,100791.96
2018-06-05T06:36:16.538Z,100791.80
2018-06-05T06:38:46.194Z,100787.38
2018-06-05T06:41:16.509Z,100795.03
2018-06-05T06:43:46.160Z,100796.81
2018-06-05T06:46:15.452Z,100790.64
2018-06-05T06:48:45.225Z,100785.92
2018-06-05T06:51:14.851Z,100785.82
2018-06-05T06:53:44.572Z,100789.48
2018-06-05T06:56:14.173Z,100791.66
2018-06-05T06:58:43.825Z,100790.80
2018-06-05T07:01:13.444Z,100799.63
2018-06-05T07:03:42.761Z,100795.90
2018-06-05T07:06:12.441Z,100799.87
2018-06-05T07:08:42.090Z,100794.41
2018-06-05T07:11:11.730Z,100788.33
2018-06-05T07:13:41.374Z,100793.88
2018-06-05T07:16:10.981Z,100790.44
2018-06-05T07:18:40.597Z,100788.13
2018-06-05T07:21:10.231Z,100793.73
2018-06-05T07:23:39.874Z,100790.58
2018-06-05T07:26:09.533Z,100789.44
2018-06-05T07:28:39.211Z,100799.34
2018-06-05T07:31:08.813Z,100799.42
2018-06-05T07:33:38.436Z,100801.52
2018-06-05T07:36:08.189Z,100797.87
2018-06-05T07:38:37.860Z,100796.20
2018-06-05T07:41:07.485Z,100796.28
2018-06-05T07:43:37.097Z,100801.80
2018-06-05T07:46:06.840Z,100802.59
2018-06-05T07:48:36.513Z,100804.64
2018-06-05T07:51:06.196Z,100804.89
2018-06-05T07:53:35.910Z,100800.03
2018-06-05T07:56:06.728Z,100799.80
2018-06-05T07:58:36.068Z,100797.23
2018-06-05T08:01:05.690Z,100796.83
2018-06-05T08:03:35.458Z,100794.80
2018-06-05T08:06:04.880Z,100794.52
2018-06-05T08:08:34.581Z,100796.37
2018-06-05T08:11:03.899Z,100801.09
2018-06-05T08:13:33.525Z,100795.11
2018-06-05T08:16:03.171Z,100793.92
2018-06-05T08:18:32.840Z,100799.63
2018-06-05T08:21:02.516Z,100797.27
2018-06-05T08:23:32.211Z,100797.37
2018-06-05T08:26:01.888Z,100799.84
2018-06-05T08:28:31.554Z,100795.66
2018-06-05T08:31:01.186Z,100791.29
2018-06-05T08:33:30.960Z,100799.14
2018-06-05T08:36:00.714Z,100799.08
2018-06-05T08:38:30.017Z,100799.80
2018-06-05T08:40:59.662Z,100808.65
2018-06-05T08:43:29.465Z,100802.36
2018-06-05T08:45:59.152Z,100804.15
2018-06-05T08:48:28.501Z,100810.50
2018-06-05T08:50:58.173Z,100811.23
2018-06-05T08:53:27.816Z,100810.41
2018-06-05T08:55:57.419Z,100818.36
2018-06-05T08:58:27.100Z,100814.52
2018-06-05T09:00:57.372Z,100816.80
2018-06-05T09:03:27.074Z,100817.08
2018-06-05T09:05:56.753Z,100814.62
2018-06-05T09:08:26.093Z,100818.25
2018-06-05T09:10:55.878Z,100819.02
2018-06-05T09:13:25.470Z,100818.17
2018-06-05T09:15:55.158Z,100825.26
2018-06-05T09:18:24.841Z,100821.00
2018-06-05T09:20:54.497Z,100824.16
2018-06-05T09:23:24.257Z,100830.17
2018-06-05T09:25:53.909Z,100826.00
2018-06-05T09:28:23.657Z,100831.47
2018-06-05T09:30:53.412Z,100833.52
2018-06-05T09:33:23.065Z,100829.87
2018-06-05T09:35:52.729Z,100834.73
2018-06-05T09:38:22.429Z,100827.48
2018-06-05T09:40:52.196Z,100828.84
2018-06-05T09:43:21.972Z,100830.24
2018-06-05T09:45:51.612Z,100833.45
2018-06-05T09:48:21.378Z,100822.36
2018-06-05T09:50:51.032Z,100829.97
2018-06-05T09:53:20.657Z,100832.48
2018-06-05T09:55:50.270Z,100834.77
2018-06-05T09:58:20.218Z,100823.35
2018-06-05T10:00:52.041Z,100827.09
2018-06-05T10:03:22.416Z,100832.91
2018-06-05T10:05:52.125Z,100829.05
2018-06-05T10:08:21.781Z,100830.86
2018-06-05T10:10:51.633Z,100826.76
2018-06-05T10:13:21.289Z,100825.58
2018-06-05T10:15:50.925Z,100827.41
2018-06-05T10:18:20.570Z,100821.09
2018-06-05T10:20:50.173Z,100819.59
2018-06-05T10:23:19.846Z,100820.53
2018-06-05T10:25:49.729Z,100814.22
2018-06-05T10:28:19.370Z,100809.84
2018-06-05T10:30:49.011Z,100806.46
2018-06-05T10:33:18.808Z,100810.09
2018-06-05T10:35:48.471Z,100815.83
2018-06-05T10:38:18.241Z,100809.55
2018-06-05T10:40:47.877Z,100802.33
2018-06-05T10:43:17.636Z,100795.77
2018-06-05T10:45:46.943Z,100802.95
2018-06-05T10:48:16.613Z,100802.39
2018-06-05T10:50:46.522Z,100800.52
2018-06-05T10:53:16.299Z,100797.94
2018-06-05T10:55:45.959Z,100799.80
2018-06-05T10:58:15.649Z,100797.71
2018-06-05T11:00:45.412Z,100799.30
2018-06-05T11:03:15.048Z,100798.38
2018-06-05T11:05:44.708Z,100795.70
2018-06-05T11:08:14.342Z,100797.70
2018-06-05T11:10:43.985Z,100791.30
2018-06-05T11:13:13.645Z,100785.19
2018-06-05T11:15:43.477Z,100784.85
2018-06-05T11:18:13.181Z,100792.25
2018-06-05T11:20:42.996Z,100800.40
2018-06-05T11:23:12.830Z,100785.33
2018-06-05T11:25:42.492Z,100788.06
2018-06-05T11:28:12.218Z,100784.98
2018-06-05T11:30:41.896Z,100778.48
2018-06-05T11:33:11.588Z,100777.62
2018-06-05T11:35:41.062Z,100772.78
2018-06-05T11:38:10.845Z,100777.92
2018-06-05T11:40:40.528Z,100775.87
2018-06-05T11:43:09.944Z,100767.59
2018-06-05T11:45:39.647Z,100772.97
2018-06-05T11:48:09.022Z,100771.63
2018-06-05T11:50:38.688Z,100766.23
2018-06-05T11:53:08.467Z,100763.41
2018-06-05T11:55:38.496Z,100761.94
2018-06-05T11:58:07.985Z,100757.22
2018-06-05T12:00:37.633Z,100753.98
2018-06-05T12:03:07.277Z,100761.48
2018-06-05T12:05:40.628Z,100755.61
2018-06-05T12:08:10.340Z,100759.09
2018-06-05T12:10:39.669Z,100754.14
2018-06-05T12:13:09.367Z,100751.70
2018-06-05T12:15:39.033Z,100751.56
2018-06-05T12:18:08.865Z,100749.83
2018-06-05T12:20:38.550Z,100755.19
2018-06-05T12:23:08.441Z,100742.66
2018-06-05T12:25:38.125Z,100743.16
2018-06-05T12:28:07.898Z,100741.23
2018-06-05T12:30:37.640Z,100733.84
2018-06-05T12:33:07.581Z,100736.25
2018-06-05T12:35:36.983Z,100738.66
2018-06-05T12:38:06.821Z,100732.45
2018-06-05T12:40:36.471Z,100732.95
2018-06-05T12:43:06.186Z,100727.57
2018-06-05T12:45:35.974Z,100734.03
2018-06-05T12:48:05.681Z,100731.11
2018-06-05T12:50:35.405Z,100727.61
2018-06-05T12:53:05.104Z,100731.31
2018-06-05T12:55:34.778Z,100726.80
2018-06-05T12:58:04.862Z,100728.36
2018-06-05T13:00:34.261Z,100723.32
2018-06-05T13:03:03.959Z,100729.78
2018-06-05T13:05:33.636Z,100726.11
2018-06-05T13:08:03.275Z,100727.58
2018-06-05T13:10:40.008Z,100724.42
2018-06-05T13:13:09.721Z,100725.92
2018-06-05T13:15:39.473Z,100720.22
2018-06-05T13:18:09.143Z,100719.70
2018-06-05T13:20:38.905Z,100709.62
2018-06-05T13:23:08.617Z,100718.73
2018-06-05T13:25:41.221Z,100720.22
2018-06-05T13:28:10.958Z,100714.31
2018-06-05T13:30:40.867Z,100713.11
2018-06-05T13:33:10.584Z,100715.94
2018-06-05T13:35:40.234Z,100710.04
2018-06-05T13:38:09.892Z,100714.70
2018-06-05T13:40:39.564Z,100709.41
2018-06-05T13:43:08.908Z,100707.74
2018-06-05T13:45:38.580Z,100700.16
2018-06-05T13:48:07.988Z,100710.64
2018-06-05T13:50:37.308Z,100704.91
2018-06-05T13:53:07.155Z,100700.35
2018-06-05T13:55:36.869Z,100700.70
2018-06-05T13:58:06.566Z,100705.86
2018-06-05T14:00:36.314Z,100694.54
2018-06-05T14:03:06.403Z,100694.05
2018-06-05T14:05:36.050Z,100698.16
2018-06-05T14:08:05.630Z,100697.63
2018-06-05T14:10:35.336Z,100698.89
2018-06-05T14:13:05.158Z,100694.56
2018-06-05T14:15:34.815Z,100701.14
2018-06-05T14:18:04.582Z,100700.66
2018-06-05T14:20:34.460Z,100698.05
2018-06-05T14:23:04.165Z,100685.80
2018-06-05T14:25:33.796Z,100679.79
2018-06-05T14:28:03.137Z,100682.78
2018-06-05T14:30:32.899Z,100679.06
2018-06-05T14:33:02.825Z,100675.06
2018-06-05T14:35:32.259Z,100679.08
2018-06-05T14:38:01.883Z,100673.20
2018-06-05T14:40:31.573Z,100671.16
2018-06-05T14:43:00.893Z,100667.32
2018-06-05T14:45:30.581Z,100661.81
2018-06-05T14:48:00.311Z,100666.09
2018-06-05T14:50:29.736Z,100669.42
2018-06-05T14:52:59.418Z,100664.17
2018-06-05T14:55:28.776Z,100659.88
2018-06-05T14:57:58.433Z,100665.75
2018-06-05T15:00:27.761Z,100662.83
2018-06-05T15:02:57.589Z,100668.47
2018-06-05T15:05:27.701Z,100658.52
2018-06-05T15:07:57.416Z,100665.27
2018-06-05T15:10:27.180Z,100663.55
2018-06-05T15:12:57.113Z,100653.64
2018-06-05T15:15:26.828Z,100658.96
2018-06-05T15:17:56.648Z,100645.09
2018-06-05T15:20:26.031Z,100651.00
2018-06-05T15:22:55.745Z,100648.94
2018-06-05T15:25:25.537Z,100653.95
2018-06-05T15:27:55.407Z,100646.92
2018-06-05T15:30:24.763Z,100647.59
2018-06-05T15:32:54.396Z,100648.75
2018-06-05T15:35:24.150Z,100641.27
2018-06-05T15:37:54.009Z,100645.23
2018-06-05T15:40:23.796Z,100640.16
2018-06-05T15:42:53.442Z,100638.18
2018-06-05T15:45:23.110Z,100635.81
2018-06-05T15:47:52.733Z,100634.60
2018-06-05T15:50:22.514Z,100632.64
2018-06-05T15:52:52.186Z,100631.64
2018-06-05T15:55:21.849Z,100625.74
2018-06-05T15:57:51.247Z,100624.97
2018-06-05T16:00:20.655Z,100621.92
2018-06-05T16:02:50.013Z,100623.78
2018-06-05T16:05:20.862Z,100617.05
2018-06-05T16:07:51.668Z,100621.64
2018-06-05T16:10:21.382Z,100618.67
2018-06-05T16:12:51.084Z,100620.02
2018-06-05T16:15:20.765Z,100622.19
2018-06-05T16:17:50.448Z,100620.28
2018-06-05T16:20:20.734Z,100624.95
2018-06-05T16:22:50.463Z,100621.27
2018-06-05T16:25:20.208Z,100620.11
2018-06-05T16:27:49.944Z,100613.33
2018-06-05T16:30:19.680Z,100624.19
2018-06-05T16:32:49.517Z,100617.51
2018-06-05T16:35:19.260Z,100618.73
2018-06-05T16:37:49.019Z,100608.19
2018-06-05T16:40:18.682Z,100615.70
2018-06-05T16:42:48.529Z,100615.26
2018-06-05T16:45:18.172Z,100608.82
2018-06-05T16:47:47.920Z,100614.97
2018-06-05T16:50:17.618Z,100614.44
2018-06-05T16:52:47.295Z,100615.77
2018-06-05T16:55:17.008Z,100613.73
2018-06-05T16:57:46.701Z,100606.64
2018-06-05T17:00:16.405Z,100610.42
2018-06-05T17:02:46.070Z,100608.87
2018-06-05T17:05:15.782Z,100601.25
2018-06-05T17:07:45.458Z,100606.37
2018-06-05T17:10:15.213Z,100604.72
2018-06-05T17:12:44.899Z,100607.56
2018-06-05T17:15:14.584Z,100608.06
2018-06-05T17:17:44.383Z,100606.99
2018-06-05T17:20:15.123Z,100603.13
2018-06-05T17:22:45.812Z,100601.98
2018-06-05T17:25:16.515Z,100600.30
2018-06-05T17:27:46.376Z,100596.41
2018-06-05T17:30:16.212Z,100601.47
2018-06-05T17:32:45.985Z,100598.80
2018-06-05T17:35:15.603Z,100597.59
2018-06-05T17:37:44.936Z,100598.03
2018-06-05T17:40:14.738Z,100606.89
2018-06-05T17:42:44.053Z,100605.61
2018-06-05T17:45:13.844Z,100606.16
2018-06-05T17:47:43.172Z,100606.27
2018-06-05T17:50:12.810Z,100603.52
2018-06-05T17:52:42.509Z,100603.02
2018-06-05T17:55:12.284Z,100608.15
2018-06-05T17:57:42.060Z,100608.61
2018-06-05T18:00:11.834Z,100607.88
2018-06-05T18:02:41.530Z,100601.53
2018-06-05T18:05:10.859Z,100604.85
2018-06-05T18:07:40.550Z,100612.36
2018-06-05T18:10:09.900Z,100610.05
2018-06-05T18:12:39.648Z,100611.70
2018-06-05T18:15:09.345Z,100613.89
2018-06-05T18:17:39.118Z,100616.81
2018-06-05T18:20:08.947Z,100617.48
2018-06-05T18:22:38.615Z,100620.03
2018-06-05T18:25:07.963Z,100625.06
2018-06-05T18:27:37.637Z,100621.72
2018-06-05T18:30:07.375Z,100618.84
2018-06-05T18:32:37.190Z,100627.14
2018-06-05T18:35:06.981Z,100623.34
2018-06-05T18:37:36.373Z,100618.78
2018-06-05T18:40:06.112Z,100620.62
2018-06-05T18:42:35.844Z,100626.77
2018-06-05T18:45:05.770Z,100621.25
2018-06-05T18:47:35.464Z,100618.52
2018-06-05T18:50:05.321Z,100619.69
2018-06-05T18:52:35.023Z,100627.95
2018-06-05T18:55:04.782Z,100620.69
2018-06-05T18:57:34.538Z,100623.86
2018-06-05T19:00:04.323Z,100630.35
2018-06-05T19:02:33.751Z,100628.07
2018-06-05T19:05:03.613Z,100636.04
2018-06-05T19:07:33.277Z,100638.23
2018-06-05T19:10:03.023Z,100645.55
2018-06-05T19:12:32.684Z,100643.77
2018-06-05T19:15:02.507Z,100641.73
2018-06-05T19:17:31.872Z,100637.11
2018-06-05T19:20:01.640Z,100646.78
2018-06-05T19:22:31.329Z,100649.16
2018-06-05T19:25:00.999Z,100652.27
2018-06-05T19:27:30.674Z,100656.39
2018-06-05T19:30:00.330Z,100659.00
2018-06-05T19:32:30.035Z,100664.59
2018-06-05T19:34:59.826Z,100671.59
2018-06-05T19:37:29.594Z,100672.05
2018-06-05T19:39:59.303Z,100671.92
2018-06-05T19:42:29.000Z,100675.56
2018-06-05T19:44:58.697Z,100678.98
2018-06-05T19:47:28.374Z,100678.19
2018-06-05T19:49:57.815Z,100681.69
2018-06-05T19:52:27.608Z,100687.55
2018-06-05T19:54:57.355Z,100694.14
2018-06-05T19:57:27.031Z,100690.95
2018-06-05T19:59:57.828Z,100697.92
2018-06-05T20:02:27.486Z,100692.48
2018-06-05T20:04:57.205Z,100697.23
2018-06-05T20:07:26.944Z,100704.72
2018-06-05T20:09:56.694Z,100706.45
2018-06-05T20:12:27.511Z,100704.06
2018-06-05T20:14:56.798Z,100708.79
2018-06-05T20:17:26.522Z,100707.65
2018-06-05T20:19:56.231Z,100713.29
2018-06-05T20:22:25.929Z,100717.50
2018-06-05T20:24:55.725Z,100714.81
2018-06-05T20:27:25.432Z,100718.73
2018-06-05T20:29:55.089Z,100721.13
2018-06-05T20:32:24.848Z,100719.16
2018-06-05T20:34:54.233Z,100720.27
2018-06-05T20:37:24.006Z,100724.52
2018-06-05T20:39:53.679Z,100722.03
2018-06-05T20:42:23.414Z,100728.97
2018-06-05T20:44:53.081Z,100736.41
2018-06-05T20:47:22.896Z,100734.52
2018-06-05T20:49:52.515Z,100727.20
2018-06-05T20:52:22.320Z,100730.91
2018-06-05T20:54:51.960Z,100733.45
2018-06-05T20:57:21.297Z,100737.56
2018-06-05T20:59:51.141Z,100735.34
2018-06-05T21:02:20.925Z,100732.19
2018-06-05T21:04:50.613Z,100732.80
2018-06-05T21:07:19.945Z,100731.55
2018-06-05T21:09:49.655Z,100734.41
2018-06-05T21:12:19.379Z,100738.34
2018-06-05T21:14:49.189Z,100746.78
2018-06-05T21:17:18.879Z,100738.21
2018-06-05T21:19:48.300Z,100741.48
2018-06-05T21:22:18.047Z,100744.67
2018-06-05T21:24:47.412Z,100747.27
2018-06-05T21:27:17.116Z,100745.31
2018-06-05T21:29:46.849Z,100746.79
2018-06-05T21:32:16.701Z,100746.52
2018-06-05T21:34:46.023Z,100746.13
2018-06-05T21:37:15.694Z,100739.23
2018-06-05T21:39:45.375Z,100744.55
2018-06-05T21:42:14.709Z,100736.77
2018-06-05T21:44:44.356Z,100736.56
2018-06-05T21:47:14.162Z,100749.39
2018-06-05T21:49:43.967Z,100747.75
2018-06-05T21:52:13.645Z,100739.95
2018-06-05T21:54:43.407Z,100745.22
2018-06-05T21:57:13.057Z,100735.77
2018-06-05T21:59:42.437Z,100738.47
2018-06-05T22:02:12.132Z,100743.31
2018-06-05T22:04:41.925Z,100744.27
2018-06-05T22:07:12.721Z,100739.92
2018-06-05T22:09:42.420Z,100743.47
2018-06-05T22:12:12.216Z,100743.52
2018-06-05T22:14:41.554Z,100743.55
2018-06-05T22:17:12.297Z,100747.50
2018-06-05T22:19:41.946Z,100741.45
2018-06-05T22:22:11.605Z,100745.81
2018-06-05T22:24:41.322Z,100741.94
2018-06-05T22:27:10.974Z,100748.94
2018-06-05T22:29:40.793Z,100745.01
2018-06-05T22:32:10.558Z,100751.11
2018-06-05T22:34:40.316Z,100749.39
2018-06-05T22:37:10.107Z,100752.45
2018-06-05T22:39:39.600Z,100748.58
2018-06-05T22:42:09.385Z,100747.70
2018-06-05T22:44:39.053Z,100750.76
2018-06-05T22:47:08.718Z,100752.09
2018-06-05T22:49:38.374Z,100748.61
2018-06-05T22:52:08.076Z,100742.98
2018-06-05T22:54:37.620Z,100746.44
2018-06-05T22:57:07.309Z,100745.57
2018-06-05T22:59:36.622Z,100745.16
2018-06-05T23:02:06.522Z,100746.52
2018-06-05T23:04:36.897Z,100749.97
2018-06-05T23:07:06.607Z,100744.78
2018-06-05T23:09:36.311Z,100747.36
2018-06-05T23:12:06.113Z,100746.94
2018-06-05T23:14:35.795Z,100752.20
2018-06-05T23:17:05.624Z,100753.94
2018-06-05T23:19:34.937Z,100751.77
2018-06-05T23:22:04.633Z,100750.45
2018-06-05T23:24:33.979Z,100747.83
2018-06-05T23:27:03.648Z,100753.09
2018-06-05T23:29:33.291Z,100756.56
2018-06-05T23:32:02.984Z,100751.77
2018-06-05T23:34:32.724Z,100757.91
2018-06-05T23:37:02.402Z,100747.45
2018-06-05T23:39:32.035Z,100751.80
2018-06-05T23:42:01.745Z,100750.08
2018-06-05T23:44:31.092Z,100755.75
2018-06-05T23:47:00.766Z,100747.91
2018-06-05T23:49:30.518Z,100746.17
2018-06-05T23:52:00.257Z,100747.04
2018-06-05T23:54:29.941Z,100742.25
2018-06-05T23:56:59.621Z,100744.86
2018-06-05T23:59:29.265Z,100738.77
